sensor_id;sensor_type;location;lat;lon;timestamp;pressure;altitude;pressure_sealevel;temperature;humidity
82870;BME280;72645;47.136;15.420;2024-02-16T00:01:42;97345.14;;;3.03;70.08
82870;BME280;72645;47.136;15.420;2024-02-16T00:04:13;97346.92;;;3.03;70.47
82870;BME280;72645;47.136;15.420;2024-02-16T00:06:44;97343.29;;;3.02;70.48
82870;BME280;72645;47.136;15.420;2024-02-16T00:09:15;97341.67;;;3.03;70.54
82870;BME280;72645;47.136;15.420;2024-02-16T00:11:46;97345.88;;;3.12;70.55
82870;BME280;72645;47.136;15.420;2024-02-16T00:14:18;97344.20;;;3.24;70.46
82870;BME280;72645;47.136;15.420;2024-02-16T00:16:49;97345.47;;;3.32;70.18
82870;BME280;72645;47.136;15.420;2024-02-16T00:19:20;97347.40;;;3.32;69.98
82870;BME280;72645;47.136;15.420;2024-02-16T00:21:52;97350.92;;;3.24;69.94
82870;BME280;72645;47.136;15.420;2024-02-16T00:24:22;97350.42;;;3.14;69.82
82870;BME280;72645;47.136;15.420;2024-02-16T00:26:53;97349.24;;;3.01;70.06
82870;BME280;72645;47.136;15.420;2024-02-16T00:29:25;97342.66;;;2.88;70.26
82870;BME280;72645;47.136;15.420;2024-02-16T00:31:55;97342.03;;;2.77;70.38
82870;BME280;72645;47.136;15.420;2024-02-16T00:34:28;97340.19;;;2.69;70.71
82870;BME280;72645;47.136;15.420;2024-02-16T00:36:59;97338.71;;;2.61;71.06
82870;BME280;72645;47.136;15.420;2024-02-16T00:39:31;97337.66;;;2.55;71.36
82870;BME280;72645;47.136;15.420;2024-02-16T00:42:02;97334.64;;;2.50;71.45
82870;BME280;72645;47.136;15.420;2024-02-16T00:44:33;97336.48;;;2.51;71.45
82870;BME280;72645;47.136;15.420;2024-02-16T00:47:04;97332.84;;;2.58;71.54
82870;BME280;72645;47.136;15.420;2024-02-16T00:49:36;97333.77;;;2.63;71.32
82870;BME280;72645;47.136;15.420;2024-02-16T00:52:07;97330.36;;;2.72;71.21
82870;BME280;72645;47.136;15.420;2024-02-16T00:54:39;97329.60;;;2.77;71.19
82870;BME280;72645;47.136;15.420;2024-02-16T00:57:11;97326.73;;;2.79;71.29
82870;BME280;72645;47.136;15.420;2024-02-16T00:59:43;97328.33;;;2.81;71.15
82870;BME280;72645;47.136;15.420;2024-02-16T01:02:14;97329.02;;;2.87;71.13
82870;BME280;72645;47.136;15.420;2024-02-16T01:04:46;97327.38;;;2.92;70.84
82870;BME280;72645;47.136;15.420;2024-02-16T01:07:17;97329.16;;;2.94;70.76
82870;BME280;72645;47.136;15.420;2024-02-16T01:09:48;97331.66;;;2.93;70.56
82870;BME280;72645;47.136;15.420;2024-02-16T01:12:19;97334.77;;;2.83;70.56
82870;BME280;72645;47.136;15.420;2024-02-16T01:14:50;97332.33;;;2.71;70.51
82870;BME280;72645;47.136;15.420;2024-02-16T01:17:21;97333.14;;;2.62;70.76
82870;BME280;72645;47.136;15.420;2024-02-16T01:19:52;97331.57;;;2.52;71.11
82870;BME280;72645;47.136;15.420;2024-02-16T01:22:23;97334.65;;;2.43;71.02
82870;BME280;72645;47.136;15.420;2024-02-16T01:24:54;97334.92;;;2.35;71.07
82870;BME280;72645;47.136;15.420;2024-02-16T01:27:25;97332.64;;;2.28;71.17
82870;BME280;72645;47.136;15.420;2024-02-16T01:29:57;97332.86;;;2.27;71.43
82870;BME280;72645;47.136;15.420;2024-02-16T01:32:29;97332.40;;;2.29;71.25
82870;BME280;72645;47.136;15.420;2024-02-16T01:35:00;97327.89;;;2.33;71.63
82870;BME280;72645;47.136;15.420;2024-02-16T01:37:31;97329.48;;;2.39;71.74
82870;BME280;72645;47.136;15.420;2024-02-16T01:40:03;97328.55;;;2.44;71.70
82870;BME280;72645;47.136;15.420;2024-02-16T01:42:34;97325.85;;;2.46;71.80
82870;BME280;72645;47.136;15.420;2024-02-16T01:45:06;97324.69;;;2.42;71.56
82870;BME280;72645;47.136;15.420;2024-02-16T01:47:39;97328.30;;;2.36;71.74
82870;BME280;72645;47.136;15.420;2024-02-16T01:50:12;97329.15;;;2.32;71.88
82870;BME280;72645;47.136;15.420;2024-02-16T01:52:46;97329.94;;;2.31;71.92
82870;BME280;72645;47.136;15.420;2024-02-16T01:55:17;97329.08;;;2.27;71.84
82870;BME280;72645;47.136;15.420;2024-02-16T01:57:49;97327.17;;;2.21;71.91
82870;BME280;72645;47.136;15.420;2024-02-16T02:00:20;97325.66;;;2.13;72.09
82870;BME280;72645;47.136;15.420;2024-02-16T02:02:51;97320.08;;;2.04;72.16
82870;BME280;72645;47.136;15.420;2024-02-16T02:05:22;97326.13;;;1.97;72.33
82870;BME280;72645;47.136;15.420;2024-02-16T02:07:53;97324.54;;;1.91;72.49
82870;BME280;72645;47.136;15.420;2024-02-16T02:10:24;97328.29;;;1.91;72.49
82870;BME280;72645;47.136;15.420;2024-02-16T02:12:55;97322.02;;;1.96;72.34
82870;BME280;72645;47.136;15.420;2024-02-16T02:15:26;97320.70;;;2.02;72.10
82870;BME280;72645;47.136;15.420;2024-02-16T02:17:57;97321.86;;;2.06;72.02
82870;BME280;72645;47.136;15.420;2024-02-16T02:20:29;97318.12;;;2.09;72.16
82870;BME280;72645;47.136;15.420;2024-02-16T02:23:00;97311.77;;;2.08;72.09
82870;BME280;72645;47.136;15.420;2024-02-16T02:25:31;97315.70;;;2.05;72.08
82870;BME280;72645;47.136;15.420;2024-02-16T02:28:03;97312.81;;;2.01;72.31
82870;BME280;72645;47.136;15.420;2024-02-16T02:30:35;97314.11;;;1.99;72.33
82870;BME280;72645;47.136;15.420;2024-02-16T02:33:07;97309.45;;;1.99;72.46
82870;BME280;72645;47.136;15.420;2024-02-16T02:35:41;97305.85;;;1.95;72.32
82870;BME280;72645;47.136;15.420;2024-02-16T02:38:12;97307.29;;;1.90;72.47
82870;BME280;72645;47.136;15.420;2024-02-16T02:40:43;97305.18;;;1.84;72.60
82870;BME280;72645;47.136;15.420;2024-02-16T02:43:14;97306.88;;;1.78;72.82
82870;BME280;72645;47.136;15.420;2024-02-16T02:45:45;97307.91;;;1.71;73.32
82870;BME280;72645;47.136;15.420;2024-02-16T02:48:16;97312.39;;;1.68;73.40
82870;BME280;72645;47.136;15.420;2024-02-16T02:50:48;97305.91;;;1.70;73.30
82870;BME280;72645;47.136;15.420;2024-02-16T02:53:18;97303.34;;;1.73;72.94
82870;BME280;72645;47.136;15.420;2024-02-16T02:55:49;97303.29;;;1.81;72.93
82870;BME280;72645;47.136;15.420;2024-02-16T02:58:21;97293.40;;;1.92;72.65
82870;BME280;72645;47.136;15.420;2024-02-16T03:00:52;97290.20;;;2.01;72.46
82870;BME280;72645;47.136;15.420;2024-02-16T03:03:24;97287.84;;;2.03;72.40
82870;BME280;72645;47.136;15.420;2024-02-16T03:05:55;97285.29;;;2.05;72.41
82870;BME280;72645;47.136;15.420;2024-02-16T03:08:25;97290.14;;;2.05;72.52
82870;BME280;72645;47.136;15.420;2024-02-16T03:10:56;97287.11;;;1.97;72.58
82870;BME280;72645;47.136;15.420;2024-02-16T03:13:31;97288.73;;;1.88;72.62
82870;BME280;72645;47.136;15.420;2024-02-16T03:16:03;97288.63;;;1.80;72.75
82870;BME280;72645;47.136;15.420;2024-02-16T03:18:34;97289.89;;;1.73;72.95
82870;BME280;72645;47.136;15.420;2024-02-16T03:21:06;97287.08;;;1.70;73.07
82870;BME280;72645;47.136;15.420;2024-02-16T03:23:37;97283.61;;;1.73;73.06
82870;BME280;72645;47.136;15.420;2024-02-16T03:26:15;97281.56;;;1.80;72.95
82870;BME280;72645;47.136;15.420;2024-02-16T03:28:47;97285.48;;;1.88;72.91
82870;BME280;72645;47.136;15.420;2024-02-16T03:31:20;97287.46;;;1.93;72.54
82870;BME280;72645;47.136;15.420;2024-02-16T03:33:52;97286.35;;;1.98;72.30
82870;BME280;72645;47.136;15.420;2024-02-16T03:36:23;97286.72;;;2.01;72.26
82870;BME280;72645;47.136;15.420;2024-02-16T03:38:54;97287.20;;;2.02;72.34
82870;BME280;72645;47.136;15.420;2024-02-16T03:41:25;97286.92;;;1.94;72.21
82870;BME280;72645;47.136;15.420;2024-02-16T03:43:56;97288.70;;;1.86;72.18
82870;BME280;72645;47.136;15.420;2024-02-16T03:46:28;97289.55;;;1.76;72.37
82870;BME280;72645;47.136;15.420;2024-02-16T03:48:59;97295.58;;;1.66;72.55
82870;BME280;72645;47.136;15.420;2024-02-16T03:51:30;97297.88;;;1.57;72.73
82870;BME280;72645;47.136;15.420;2024-02-16T03:54:01;97299.98;;;1.50;72.76
82870;BME280;72645;47.136;15.420;2024-02-16T03:56:33;97308.44;;;1.42;73.22
82870;BME280;72645;47.136;15.420;2024-02-16T03:59:05;97306.06;;;1.34;73.54
82870;BME280;72645;47.136;15.420;2024-02-16T04:01:39;97312.80;;;1.34;73.76
82870;BME280;72645;47.136;15.420;2024-02-16T04:04:11;97310.73;;;1.41;73.87
82870;BME280;72645;47.136;15.420;2024-02-16T04:06:42;97312.27;;;1.53;73.71
82870;BME280;72645;47.136;15.420;2024-02-16T04:09:14;97317.19;;;1.65;73.73
82870;BME280;72645;47.136;15.420;2024-02-16T04:11:46;97314.98;;;1.71;73.62
82870;BME280;72645;47.136;15.420;2024-02-16T04:14:17;97313.12;;;1.74;73.24
82870;BME280;72645;47.136;15.420;2024-02-16T04:16:48;97316.80;;;1.80;73.00
82870;BME280;72645;47.136;15.420;2024-02-16T04:19:19;97316.04;;;1.84;72.94
82870;BME280;72645;47.136;15.420;2024-02-16T04:21:50;97316.88;;;1.88;72.98
82870;BME280;72645;47.136;15.420;2024-02-16T04:24:21;97312.54;;;1.89;72.87
82870;BME280;72645;47.136;15.420;2024-02-16T04:26:52;97317.52;;;1.82;72.24
82870;BME280;72645;47.136;15.420;2024-02-16T04:29:23;97315.05;;;1.70;72.33
82870;BME280;72645;47.136;15.420;2024-02-16T04:31:54;97315.44;;;1.58;72.58
82870;BME280;72645;47.136;15.420;2024-02-16T04:34:25;97314.65;;;1.46;72.69
82870;BME280;72645;47.136;15.420;2024-02-16T04:36:58;97315.96;;;1.36;72.87
82870;BME280;72645;47.136;15.420;2024-02-16T04:39:29;97320.76;;;1.30;73.45
82870;BME280;72645;47.136;15.420;2024-02-16T04:42:00;97319.14;;;1.27;73.58
82870;BME280;72645;47.136;15.420;2024-02-16T04:44:32;97318.49;;;1.30;73.46
82870;BME280;72645;47.136;15.420;2024-02-16T04:47:03;97314.05;;;1.33;73.36
82870;BME280;72645;47.136;15.420;2024-02-16T04:49:34;97317.90;;;1.39;73.33
82870;BME280;72645;47.136;15.420;2024-02-16T04:52:06;97316.84;;;1.47;73.20
82870;BME280;72645;47.136;15.420;2024-02-16T04:54:38;97313.92;;;1.50;72.98
82870;BME280;72645;47.136;15.420;2024-02-16T04:57:10;97306.61;;;1.41;72.63
82870;BME280;72645;47.136;15.420;2024-02-16T04:59:41;97312.36;;;1.39;72.82
82870;BME280;72645;47.136;15.420;2024-02-16T05:02:12;97315.13;;;1.32;72.79
82870;BME280;72645;47.136;15.420;2024-02-16T05:04:43;97315.50;;;1.28;73.08
82870;BME280;72645;47.136;15.420;2024-02-16T05:07:14;97317.41;;;1.28;73.28
82870;BME280;72645;47.136;15.420;2024-02-16T05:09:45;97321.89;;;1.28;73.29
82870;BME280;72645;47.136;15.420;2024-02-16T05:12:16;97320.80;;;1.25;73.35
82870;BME280;72645;47.136;15.420;2024-02-16T05:14:50;97319.98;;;1.24;73.43
82870;BME280;72645;47.136;15.420;2024-02-16T05:17:21;97320.91;;;1.19;73.52
82870;BME280;72645;47.136;15.420;2024-02-16T05:19:53;97321.30;;;1.15;73.58
82870;BME280;72645;47.136;15.420;2024-02-16T05:22:24;97322.46;;;1.12;73.87
82870;BME280;72645;47.136;15.420;2024-02-16T05:24:55;97322.84;;;1.15;73.85
82870;BME280;72645;47.136;15.420;2024-02-16T05:27:26;97323.70;;;1.18;73.59
82870;BME280;72645;47.136;15.420;2024-02-16T05:29:57;97321.91;;;1.24;73.59
82870;BME280;72645;47.136;15.420;2024-02-16T05:32:28;97320.88;;;1.31;73.58
82870;BME280;72645;47.136;15.420;2024-02-16T05:34:59;97316.46;;;1.36;73.37
82870;BME280;72645;47.136;15.420;2024-02-16T05:37:34;97316.55;;;1.38;73.26
82870;BME280;72645;47.136;15.420;2024-02-16T05:40:09;97316.11;;;1.37;73.03
82870;BME280;72645;47.136;15.420;2024-02-16T05:42:50;97318.30;;;1.27;72.70
82870;BME280;72645;47.136;15.420;2024-02-16T05:45:21;97322.89;;;1.17;72.99
82870;BME280;72645;47.136;15.420;2024-02-16T05:47:52;97324.66;;;1.13;73.26
82870;BME280;72645;47.136;15.420;2024-02-16T05:50:24;97328.13;;;1.12;73.38
82870;BME280;72645;47.136;15.420;2024-02-16T05:52:55;97330.38;;;1.08;73.62
82870;BME280;72645;47.136;15.420;2024-02-16T05:55:26;97327.11;;;1.05;74.05
82870;BME280;72645;47.136;15.420;2024-02-16T05:57:57;97332.52;;;1.03;74.11
82870;BME280;72645;47.136;15.420;2024-02-16T06:00:28;97334.27;;;1.07;74.27
82870;BME280;72645;47.136;15.420;2024-02-16T06:02:59;97336.33;;;1.18;74.10
82870;BME280;72645;47.136;15.420;2024-02-16T06:05:30;97340.92;;;1.30;74.02
82870;BME280;72645;47.136;15.420;2024-02-16T06:08:03;97343.89;;;1.44;73.85
82870;BME280;72645;47.136;15.420;2024-02-16T06:10:34;97346.86;;;1.62;73.56
82870;BME280;72645;47.136;15.420;2024-02-16T06:13:05;97346.99;;;1.76;73.47
82870;BME280;72645;47.136;15.420;2024-02-16T06:15:36;97350.49;;;1.82;72.95
82870;BME280;72645;47.136;15.420;2024-02-16T06:18:08;97351.07;;;1.78;72.69
82870;BME280;72645;47.136;15.420;2024-02-16T06:20:39;97351.11;;;1.73;73.34
82870;BME280;72645;47.136;15.420;2024-02-16T06:23:11;97351.05;;;1.96;79.65
82870;BME280;72645;47.136;15.420;2024-02-16T06:25:42;97357.73;;;2.00;75.53
82870;BME280;72645;47.136;15.420;2024-02-16T06:28:13;97364.35;;;1.96;74.40
82870;BME280;72645;47.136;15.420;2024-02-16T06:30:44;97360.85;;;1.89;74.23
82870;BME280;72645;47.136;15.420;2024-02-16T06:33:16;97360.31;;;1.83;73.99
82870;BME280;72645;47.136;15.420;2024-02-16T06:35:47;97364.16;;;1.78;74.05
82870;BME280;72645;47.136;15.420;2024-02-16T06:38:20;97364.88;;;1.78;74.09
82870;BME280;72645;47.136;15.420;2024-02-16T06:40:51;97367.83;;;1.77;74.04
82870;BME280;72645;47.136;15.420;2024-02-16T06:43:22;97365.64;;;1.80;74.11
82870;BME280;72645;47.136;15.420;2024-02-16T06:45:53;97370.09;;;1.84;74.09
82870;BME280;72645;47.136;15.420;2024-02-16T06:48:26;97370.47;;;1.87;74.24
82870;BME280;72645;47.136;15.420;2024-02-16T06:50:57;97373.93;;;1.90;74.18
82870;BME280;72645;47.136;15.420;2024-02-16T06:53:28;97375.39;;;1.99;74.16
82870;BME280;72645;47.136;15.420;2024-02-16T06:55:59;97375.44;;;2.05;73.93
82870;BME280;72645;47.136;15.420;2024-02-16T06:58:30;97379.14;;;2.07;73.91
82870;BME280;72645;47.136;15.420;2024-02-16T07:01:01;97384.17;;;2.07;74.10
82870;BME280;72645;47.136;15.420;2024-02-16T07:03:33;97388.73;;;2.05;74.40
82870;BME280;72645;47.136;15.420;2024-02-16T07:06:07;97390.61;;;2.06;74.57
82870;BME280;72645;47.136;15.420;2024-02-16T07:08:39;97392.41;;;2.08;74.93
82870;BME280;72645;47.136;15.420;2024-02-16T07:11:11;97391.99;;;2.16;74.98
82870;BME280;72645;47.136;15.420;2024-02-16T07:13:42;97390.42;;;2.30;75.02
82870;BME280;72645;47.136;15.420;2024-02-16T07:16:13;97390.92;;;2.47;74.98
82870;BME280;72645;47.136;15.420;2024-02-16T07:18:44;97391.40;;;2.65;74.75
82870;BME280;72645;47.136;15.420;2024-02-16T07:21:16;97391.75;;;2.82;74.43
82870;BME280;72645;47.136;15.420;2024-02-16T07:23:50;97388.92;;;2.93;74.50
82870;BME280;72645;47.136;15.420;2024-02-16T07:26:21;97385.97;;;3.00;74.12
82870;BME280;72645;47.136;15.420;2024-02-16T07:28:54;97387.30;;;3.04;73.71
82870;BME280;72645;47.136;15.420;2024-02-16T07:31:25;97387.80;;;3.08;73.94
82870;BME280;72645;47.136;15.420;2024-02-16T07:33:56;97385.06;;;3.17;74.39
82870;BME280;72645;47.136;15.420;2024-02-16T07:36:27;97386.15;;;3.29;74.32
82870;BME280;72645;47.136;15.420;2024-02-16T07:38:59;97388.58;;;3.41;74.23
82870;BME280;72645;47.136;15.420;2024-02-16T07:41:30;97380.67;;;3.50;73.97
82870;BME280;72645;47.136;15.420;2024-02-16T07:44:01;97385.33;;;3.59;73.69
82870;BME280;72645;47.136;15.420;2024-02-16T07:46:32;97381.72;;;3.68;73.58
82870;BME280;72645;47.136;15.420;2024-02-16T07:49:05;97388.08;;;3.99;80.57
82870;BME280;72645;47.136;15.420;2024-02-16T07:51:36;97388.61;;;4.62;83.34
82870;BME280;72645;47.136;15.420;2024-02-16T07:54:08;97387.56;;;5.25;82.53
82870;BME280;72645;47.136;15.420;2024-02-16T07:56:39;97388.52;;;5.37;75.78
82870;BME280;72645;47.136;15.420;2024-02-16T07:59:09;97390.21;;;5.38;73.84
82870;BME280;72645;47.136;15.420;2024-02-16T08:04:31;97383.54;;;5.39;72.33
82870;BME280;72645;47.136;15.420;2024-02-16T08:07:03;97382.41;;;5.43;71.90
82870;BME280;72645;47.136;15.420;2024-02-16T08:09:34;97388.27;;;5.47;71.44
82870;BME280;72645;47.136;15.420;2024-02-16T08:12:06;97390.31;;;5.50;71.46
82870;BME280;72645;47.136;15.420;2024-02-16T08:14:37;97387.28;;;5.54;71.21
82870;BME280;72645;47.136;15.420;2024-02-16T08:17:08;97388.88;;;5.53;71.01
82870;BME280;72645;47.136;15.420;2024-02-16T08:19:53;97386.59;;;5.57;71.00
82870;BME280;72645;47.136;15.420;2024-02-16T08:22:24;97386.11;;;5.61;70.98
82870;BME280;72645;47.136;15.420;2024-02-16T08:24:55;97385.16;;;5.66;70.62
82870;BME280;72645;47.136;15.420;2024-02-16T08:27:26;97387.86;;;5.67;70.49
82870;BME280;72645;47.136;15.420;2024-02-16T08:29:57;97384.00;;;5.70;70.44
82870;BME280;72645;47.136;15.420;2024-02-16T08:32:28;97381.16;;;5.77;70.30
82870;BME280;72645;47.136;15.420;2024-02-16T08:35:00;97382.55;;;5.85;70.58
82870;BME280;72645;47.136;15.420;2024-02-16T08:37:33;97384.23;;;6.02;70.78
82870;BME280;72645;47.136;15.420;2024-02-16T08:40:05;97386.32;;;6.23;70.37
82870;BME280;72645;47.136;15.420;2024-02-16T08:42:36;97385.25;;;6.47;70.40
82870;BME280;72645;47.136;15.420;2024-02-16T08:45:08;97385.55;;;6.71;69.95
82870;BME280;72645;47.136;15.420;2024-02-16T08:47:39;97382.67;;;6.95;69.46
82870;BME280;72645;47.136;15.420;2024-02-16T08:50:11;97385.12;;;7.18;69.04
82870;BME280;72645;47.136;15.420;2024-02-16T08:52:43;97381.23;;;7.38;68.58
82870;BME280;72645;47.136;15.420;2024-02-16T08:55:14;97379.73;;;7.60;68.17
82870;BME280;72645;47.136;15.420;2024-02-16T08:57:45;97377.06;;;7.80;67.85
82870;BME280;72645;47.136;15.420;2024-02-16T09:00:18;97377.95;;;7.99;67.33
82870;BME280;72645;47.136;15.420;2024-02-16T09:02:49;97373.86;;;8.19;66.88
82870;BME280;72645;47.136;15.420;2024-02-16T09:05:20;97378.47;;;8.46;66.43
82870;BME280;72645;47.136;15.420;2024-02-16T09:07:52;97375.88;;;8.71;65.33
82870;BME280;72645;47.136;15.420;2024-02-16T09:10:24;97370.44;;;8.97;65.10
82870;BME280;72645;47.136;15.420;2024-02-16T09:12:55;97372.48;;;9.22;64.42
82870;BME280;72645;47.136;15.420;2024-02-16T09:15:26;97370.61;;;9.44;63.86
82870;BME280;72645;47.136;15.420;2024-02-16T09:17:57;97364.65;;;9.68;63.70
82870;BME280;72645;47.136;15.420;2024-02-16T09:20:28;97368.70;;;9.93;63.49
82870;BME280;72645;47.136;15.420;2024-02-16T09:22:59;97368.67;;;10.20;63.11
82870;BME280;72645;47.136;15.420;2024-02-16T09:25:30;97362.69;;;10.46;62.24
82870;BME280;72645;47.136;15.420;2024-02-16T09:28:01;97364.16;;;10.70;61.78
82870;BME280;72645;47.136;15.420;2024-02-16T09:30:32;97364.46;;;10.97;60.84
82870;BME280;72645;47.136;15.420;2024-02-16T09:33:04;97363.10;;;11.19;59.58
82870;BME280;72645;47.136;15.420;2024-02-16T09:35:37;97366.50;;;11.38;58.70
82870;BME280;72645;47.136;15.420;2024-02-16T09:38:08;97366.59;;;11.58;58.41
82870;BME280;72645;47.136;15.420;2024-02-16T09:40:40;97366.14;;;11.79;58.22
82870;BME280;72645;47.136;15.420;2024-02-16T09:43:20;97368.65;;;12.04;57.34
82870;BME280;72645;47.136;15.420;2024-02-16T09:45:55;97367.77;;;12.33;56.54
82870;BME280;72645;47.136;15.420;2024-02-16T09:48:28;97369.15;;;12.58;55.76
82870;BME280;72645;47.136;15.420;2024-02-16T09:50:59;97371.26;;;12.81;55.41
82870;BME280;72645;47.136;15.420;2024-02-16T09:53:31;97365.75;;;13.06;54.53
82870;BME280;72645;47.136;15.420;2024-02-16T09:56:02;97362.39;;;13.25;54.09
82870;BME280;72645;47.136;15.420;2024-02-16T09:58:38;97358.77;;;13.45;53.66
82870;BME280;72645;47.136;15.420;2024-02-16T10:01:19;97356.96;;;13.62;52.59
82870;BME280;72645;47.136;15.420;2024-02-16T10:03:51;97358.17;;;13.78;52.19
82870;BME280;72645;47.136;15.420;2024-02-16T10:06:22;97354.69;;;13.91;51.35
82870;BME280;72645;47.136;15.420;2024-02-16T10:08:54;97355.06;;;14.07;50.70
82870;BME280;72645;47.136;15.420;2024-02-16T10:11:27;97354.02;;;14.20;50.16
82870;BME280;72645;47.136;15.420;2024-02-16T10:14:00;97356.70;;;14.36;49.82
82870;BME280;72645;47.136;15.420;2024-02-16T10:16:32;97354.36;;;14.46;48.61
82870;BME280;72645;47.136;15.420;2024-02-16T10:19:08;97356.67;;;14.55;48.10
82870;BME280;72645;47.136;15.420;2024-02-16T10:21:45;97353.08;;;14.62;48.06
82870;BME280;72645;47.136;15.420;2024-02-16T10:24:20;97352.21;;;14.75;47.84
82870;BME280;72645;47.136;15.420;2024-02-16T10:26:52;97351.80;;;14.87;46.95
82870;BME280;72645;47.136;15.420;2024-02-16T10:29:28;97345.45;;;14.98;46.05
82870;BME280;72645;47.136;15.420;2024-02-16T10:32:00;97344.20;;;15.13;46.17
82870;BME280;72645;47.136;15.420;2024-02-16T10:34:32;97346.45;;;15.27;45.33
82870;BME280;72645;47.136;15.420;2024-02-16T10:37:05;97345.88;;;15.38;44.38
82870;BME280;72645;47.136;15.420;2024-02-16T10:39:37;97345.38;;;15.51;44.94
82870;BME280;72645;47.136;15.420;2024-02-16T10:42:10;97342.39;;;15.64;44.11
82870;BME280;72645;47.136;15.420;2024-02-16T10:44:41;97341.64;;;15.79;44.38
82870;BME280;72645;47.136;15.420;2024-02-16T10:47:14;97343.53;;;15.83;43.11
82870;BME280;72645;47.136;15.420;2024-02-16T10:49:45;97336.48;;;15.79;43.13
82870;BME280;72645;47.136;15.420;2024-02-16T10:52:17;97335.41;;;15.87;43.89
82870;BME280;72645;47.136;15.420;2024-02-16T10:54:49;97331.39;;;16.01;43.86
82870;BME280;72645;47.136;15.420;2024-02-16T10:57:21;97329.85;;;16.18;43.77
82870;BME280;72645;47.136;15.420;2024-02-16T10:59:54;97328.19;;;16.33;42.85
82870;BME280;72645;47.136;15.420;2024-02-16T11:02:28;97325.18;;;16.43;43.52
82870;BME280;72645;47.136;15.420;2024-02-16T11:05:09;97323.66;;;16.56;45.12
82870;BME280;72645;47.136;15.420;2024-02-16T11:07:41;97320.64;;;16.70;43.64
82870;BME280;72645;47.136;15.420;2024-02-16T11:10:14;97321.42;;;16.79;42.72
82870;BME280;72645;47.136;15.420;2024-02-16T11:12:46;97315.54;;;16.89;42.72
82870;BME280;72645;47.136;15.420;2024-02-16T11:15:28;97316.80;;;16.97;42.05
82870;BME280;72645;47.136;15.420;2024-02-16T11:18:01;97310.32;;;17.00;42.12
82870;BME280;72645;47.136;15.420;2024-02-16T11:20:39;97310.55;;;17.07;41.50
82870;BME280;72645;47.136;15.420;2024-02-16T11:23:11;97308.12;;;17.08;40.59
82870;BME280;72645;47.136;15.420;2024-02-16T11:25:51;97304.41;;;17.10;40.61
82870;BME280;72645;47.136;15.420;2024-02-16T11:28:22;97301.41;;;17.20;40.49
82870;BME280;72645;47.136;15.420;2024-02-16T11:30:54;97302.66;;;17.26;40.16
82870;BME280;72645;47.136;15.420;2024-02-16T11:33:30;97296.94;;;17.28;40.67
82870;BME280;72645;47.136;15.420;2024-02-16T11:36:03;97297.26;;;17.41;40.41
82870;BME280;72645;47.136;15.420;2024-02-16T11:38:34;97288.69;;;17.50;39.68
82870;BME280;72645;47.136;15.420;2024-02-16T11:41:06;97289.54;;;17.53;39.27
82870;BME280;72645;47.136;15.420;2024-02-16T11:43:38;97285.67;;;17.57;39.55
82870;BME280;72645;47.136;15.420;2024-02-16T11:46:16;97284.65;;;17.63;39.31
82870;BME280;72645;47.136;15.420;2024-02-16T11:48:47;97288.11;;;17.62;39.19
82870;BME280;72645;47.136;15.420;2024-02-16T11:51:19;97283.98;;;17.65;40.02
82870;BME280;72645;47.136;15.420;2024-02-16T11:53:58;97287.08;;;17.71;38.98
82870;BME280;72645;47.136;15.420;2024-02-16T11:56:29;97283.31;;;17.67;39.12
82870;BME280;72645;47.136;15.420;2024-02-16T11:59:01;97277.21;;;17.57;39.47
82870;BME280;72645;47.136;15.420;2024-02-16T12:01:32;97275.32;;;17.58;39.47
82870;BME280;72645;47.136;15.420;2024-02-16T12:04:04;97275.39;;;17.62;39.27
82870;BME280;72645;47.136;15.420;2024-02-16T12:06:36;97271.92;;;17.66;39.10
82870;BME280;72645;47.136;15.420;2024-02-16T12:09:07;97270.30;;;17.63;38.77
82870;BME280;72645;47.136;15.420;2024-02-16T12:11:39;97273.82;;;17.57;38.90
82870;BME280;72645;47.136;15.420;2024-02-16T12:14:11;97266.22;;;17.61;39.17
82870;BME280;72645;47.136;15.420;2024-02-16T12:16:42;97266.48;;;17.66;38.92
82870;BME280;72645;47.136;15.420;2024-02-16T12:19:14;97263.95;;;17.68;38.98
82870;BME280;72645;47.136;15.420;2024-02-16T12:21:47;97263.11;;;17.77;39.31
82870;BME280;72645;47.136;15.420;2024-02-16T12:24:19;97263.29;;;17.87;38.64
82870;BME280;72645;47.136;15.420;2024-02-16T12:26:50;97257.49;;;17.84;38.43
82870;BME280;72645;47.136;15.420;2024-02-16T12:29:21;97259.73;;;17.87;39.13
82870;BME280;72645;47.136;15.420;2024-02-16T12:31:53;97262.74;;;17.91;38.21
82870;BME280;72645;47.136;15.420;2024-02-16T12:34:24;97259.13;;;17.88;38.07
82870;BME280;72645;47.136;15.420;2024-02-16T12:36:56;97263.04;;;17.85;37.72
82870;BME280;72645;47.136;15.420;2024-02-16T12:39:27;97262.30;;;17.76;38.31
82870;BME280;72645;47.136;15.420;2024-02-16T12:41:58;97261.64;;;17.73;37.99
82870;BME280;72645;47.136;15.420;2024-02-16T12:44:31;97262.43;;;17.73;38.44
82870;BME280;72645;47.136;15.420;2024-02-16T12:47:02;97259.92;;;17.78;38.27
82870;BME280;72645;47.136;15.420;2024-02-16T12:49:33;97259.95;;;17.78;38.01
82870;BME280;72645;47.136;15.420;2024-02-16T12:52:06;97258.27;;;17.80;38.62
82870;BME280;72645;47.136;15.420;2024-02-16T12:54:37;97254.48;;;17.88;38.44
82870;BME280;72645;47.136;15.420;2024-02-16T12:57:13;97253.71;;;17.95;38.36
82870;BME280;72645;47.136;15.420;2024-02-16T12:59:44;97251.40;;;18.00;38.25
82870;BME280;72645;47.136;15.420;2024-02-16T13:02:15;97251.22;;;17.98;37.82
82870;BME280;72645;47.136;15.420;2024-02-16T13:04:47;97242.98;;;17.91;38.06
82870;BME280;72645;47.136;15.420;2024-02-16T13:07:18;97247.98;;;17.86;38.04
82870;BME280;72645;47.136;15.420;2024-02-16T13:09:49;97243.43;;;17.81;38.06
82870;BME280;72645;47.136;15.420;2024-02-16T13:12:21;97240.36;;;17.85;38.46
82870;BME280;72645;47.136;15.420;2024-02-16T13:14:53;97238.89;;;17.98;38.47
82870;BME280;72645;47.136;15.420;2024-02-16T13:17:27;97241.03;;;18.00;37.81
82870;BME280;72645;47.136;15.420;2024-02-16T13:19:58;97237.04;;;18.01;37.61
82870;BME280;72645;47.136;15.420;2024-02-16T13:22:36;97233.63;;;18.00;37.63
82870;BME280;72645;47.136;15.420;2024-02-16T13:25:08;97233.10;;;18.00;37.90